createdAt,value
2022-11-26T00:00:28.699Z,18.75
2022-11-26T00:02:56.020Z,18.15
2022-11-26T00:05:23.653Z,16.65
2022-11-26T00:07:58.387Z,19.98
2022-11-26T00:10:35.310Z,18.52
2022-11-26T00:13:02.544Z,20.48
2022-11-26T00:15:30.835Z,12.23
2022-11-26T00:17:58.283Z,13.80
2022-11-26T00:20:30.279Z,13.77
2022-11-26T00:22:58.594Z,19.40
2022-11-26T00:25:27.127Z,21.27
2022-11-26T00:27:55.430Z,21.67
2022-11-26T00:30:25.098Z,17.75
2022-11-26T00:32:53.171Z,23.65
2022-11-26T00:35:20.671Z,15.60
2022-11-26T00:37:58.804Z,14.35
2022-11-26T00:40:27.523Z,23.38
2022-11-26T00:43:01.245Z,27.65
2022-11-26T00:45:30.084Z,30.58
2022-11-26T00:48:01.903Z,39.00
2022-11-26T00:50:31.258Z,43.72
2022-11-26T00:52:58.622Z,29.50
2022-11-26T00:55:28.887Z,28.25
2022-11-26T00:57:56.586Z,27.98
2022-11-26T01:00:25.242Z,30.92
2022-11-26T01:02:52.970Z,36.15
2022-11-26T01:05:24.627Z,25.02
2022-11-26T01:07:52.617Z,27.35
2022-11-26T01:10:24.264Z,18.73
2022-11-26T01:12:52.187Z,20.70
2022-11-26T01:15:20.107Z,23.13
2022-11-26T01:17:47.559Z,20.70
2022-11-26T01:20:25.211Z,25.60
2022-11-26T01:22:53.259Z,23.10
2022-11-26T01:25:20.969Z,17.10
2022-11-26T01:27:48.146Z,21.73
2022-11-26T01:30:19.192Z,24.10
2022-11-26T01:32:46.484Z,17.60
2022-11-26T01:35:14.153Z,17.55
2022-11-26T01:37:41.306Z,23.13
2022-11-26T01:40:32.021Z,15.70
2022-11-26T01:43:17.977Z,15.77
2022-11-26T01:45:45.286Z,19.45
2022-11-26T01:48:24.303Z,20.75
2022-11-26T01:50:56.965Z,20.55
2022-11-26T01:53:29.646Z,16.65
2022-11-26T01:55:59.551Z,15.45
2022-11-26T01:58:34.458Z,11.15
2022-11-26T02:01:05.671Z,17.40
2022-11-26T02:03:34.927Z,16.92
2022-11-26T02:06:07.817Z,18.67
2022-11-26T02:08:35.585Z,17.40
2022-11-26T02:11:15.625Z,17.35
2022-11-26T02:13:43.032Z,16.13
2022-11-26T02:16:14.966Z,18.08
2022-11-26T02:18:43.360Z,16.75
2022-11-26T02:21:15.129Z,19.48
2022-11-26T02:23:45.433Z,21.05
2022-11-26T02:26:15.639Z,20.83
2022-11-26T02:28:52.370Z,16.52
2022-11-26T02:31:38.466Z,18.17
2022-11-26T02:34:08.666Z,17.85
2022-11-26T02:36:39.296Z,17.63
2022-11-26T02:39:17.102Z,19.10
2022-11-26T02:41:45.851Z,18.08
2022-11-26T02:44:14.650Z,19.38
2022-11-26T02:46:42.391Z,12.65
2022-11-26T02:49:11.251Z,21.50
2022-11-26T02:51:39.457Z,20.42
2022-11-26T02:54:07.756Z,15.90
2022-11-26T02:56:35.646Z,18.13
2022-11-26T02:59:03.838Z,24.25
2022-11-26T03:01:33.713Z,20.00
2022-11-26T03:04:03.056Z,20.83
2022-11-26T03:06:32.391Z,19.02
2022-11-26T03:08:59.654Z,18.95
2022-11-26T03:11:27.092Z,21.33
2022-11-26T03:13:54.295Z,20.65
2022-11-26T03:16:21.488Z,18.65
2022-11-26T03:18:48.734Z,25.90
2022-11-26T03:21:15.894Z,17.83
2022-11-26T03:23:43.082Z,16.15
2022-11-26T03:26:10.298Z,19.60
2022-11-26T03:28:37.550Z,23.90
2022-11-26T03:31:04.704Z,19.88
2022-11-26T03:33:31.884Z,23.80
2022-11-26T03:35:59.049Z,20.67
2022-11-26T03:38:26.178Z,25.17
2022-11-26T03:41:00.238Z,24.60
2022-11-26T03:43:27.724Z,20.98
2022-11-26T03:45:55.280Z,21.80
2022-11-26T03:48:22.599Z,24.63
2022-11-26T03:50:49.707Z,21.25
2022-11-26T03:53:16.893Z,34.42
2022-11-26T03:55:44.087Z,21.10
2022-11-26T03:58:11.294Z,29.73
2022-11-26T04:00:38.462Z,26.95
2022-11-26T04:03:05.658Z,23.85
2022-11-26T04:05:32.878Z,25.17
2022-11-26T04:08:00.291Z,21.27
2022-11-26T04:10:27.448Z,28.92
2022-11-26T04:12:54.625Z,24.38
2022-11-26T04:15:21.730Z,30.67
2022-11-26T04:17:48.901Z,30.25
2022-11-26T04:20:16.214Z,30.17
2022-11-26T04:22:43.404Z,26.90
2022-11-26T04:25:10.897Z,25.05
2022-11-26T04:27:38.083Z,30.75
2022-11-26T04:30:07.069Z,28.17
2022-11-26T04:32:34.295Z,34.55
2022-11-26T04:35:01.443Z,28.38
2022-11-26T04:37:28.629Z,32.45
2022-11-26T04:39:55.826Z,23.77
2022-11-26T04:42:22.958Z,24.92
2022-11-26T04:44:50.089Z,23.40
2022-11-26T04:47:17.428Z,33.40
2022-11-26T04:49:44.621Z,28.77
2022-11-26T04:52:11.871Z,27.88
2022-11-26T04:54:39.314Z,35.95
2022-11-26T04:57:06.720Z,30.30
2022-11-26T04:59:33.855Z,28.05
2022-11-26T05:02:01.385Z,33.53
2022-11-26T05:04:31.518Z,44.00
2022-11-26T05:07:21.279Z,39.65
2022-11-26T05:10:08.033Z,33.28
2022-11-26T05:12:35.433Z,31.63
2022-11-26T05:15:02.963Z,29.67
2022-11-26T05:17:30.189Z,30.17
2022-11-26T05:19:57.333Z,35.85
2022-11-26T05:22:24.582Z,48.60
2022-11-26T05:24:51.841Z,32.22
2022-11-26T05:27:19.046Z,50.80
2022-11-26T05:29:46.207Z,34.90
2022-11-26T05:32:13.555Z,32.70
2022-11-26T05:34:41.161Z,33.53
2022-11-26T05:37:08.637Z,34.30
2022-11-26T05:39:35.869Z,31.17
2022-11-26T05:42:08.796Z,37.67
2022-11-26T05:45:07.721Z,44.40
2022-11-26T05:47:35.344Z,32.67
2022-11-26T05:50:02.918Z,34.47
2022-11-26T05:52:30.143Z,45.15
2022-11-26T05:54:57.281Z,41.95
2022-11-26T05:57:24.425Z,38.50
2022-11-26T05:59:51.603Z,42.38
2022-11-26T06:02:19.024Z,40.25
2022-11-26T06:04:46.295Z,56.30
2022-11-26T06:07:13.644Z,62.65
2022-11-26T06:09:41.109Z,45.25
2022-11-26T06:12:08.563Z,53.05
2022-11-26T06:14:39.191Z,71.07
2022-11-26T06:17:10.104Z,48.40
2022-11-26T06:19:37.521Z,46.78
2022-11-26T06:22:04.755Z,43.58
2022-11-26T06:24:32.266Z,32.38
2022-11-26T06:26:59.451Z,40.38
2022-11-26T06:29:28.333Z,45.20
2022-11-26T06:31:55.863Z,38.03
2022-11-26T06:34:23.058Z,36.63
2022-11-26T06:36:50.238Z,46.70
2022-11-26T06:39:17.479Z,44.88
2022-11-26T06:41:44.672Z,36.20
2022-11-26T06:44:11.859Z,34.75
2022-11-26T06:46:38.994Z,50.08
2022-11-26T06:49:07.352Z,50.42
2022-11-26T06:51:34.595Z,75.32
2022-11-26T06:54:01.835Z,44.40
2022-11-26T06:56:29.298Z,37.28
2022-11-26T06:58:56.610Z,36.30
2022-11-26T07:01:25.253Z,39.28
2022-11-26T07:03:52.736Z,50.53
2022-11-26T07:06:21.811Z,43.28
2022-11-26T07:08:49.433Z,49.50
2022-11-26T07:11:16.710Z,52.63
2022-11-26T07:13:43.928Z,41.28
2022-11-26T07:16:11.483Z,49.53
2022-11-26T07:18:38.952Z,33.95
2022-11-26T07:21:07.029Z,38.65
2022-11-26T07:23:34.264Z,48.72
2022-11-26T07:26:02.317Z,50.28
2022-11-26T07:28:29.636Z,39.75
2022-11-26T07:31:00.468Z,47.58
2022-11-26T07:33:27.708Z,52.47
2022-11-26T07:35:55.098Z,46.00
2022-11-26T07:38:22.280Z,43.50
2022-11-26T07:40:49.536Z,53.63
2022-11-26T07:43:16.789Z,47.47
2022-11-26T07:45:44.153Z,36.75
2022-11-26T07:48:15.449Z,37.63
2022-11-26T07:53:11.396Z,59.10
2022-11-26T07:55:39.204Z,49.63
2022-11-26T07:58:18.571Z,45.65
2022-11-26T08:00:50.786Z,43.95
2022-11-26T08:03:21.490Z,44.08
2022-11-26T08:05:48.665Z,50.58
2022-11-26T08:08:15.908Z,38.95
2022-11-26T08:10:43.155Z,36.80
2022-11-26T08:13:10.507Z,48.40
2022-11-26T08:15:37.867Z,42.97
2022-11-26T08:18:05.274Z,49.28
2022-11-26T08:20:32.421Z,41.92
2022-11-26T08:22:59.598Z,47.97
2022-11-26T08:25:26.958Z,37.45
2022-11-26T08:27:54.156Z,41.95
2022-11-26T08:30:21.460Z,36.03
2022-11-26T08:32:48.591Z,42.95
2022-11-26T08:35:15.959Z,41.83
2022-11-26T08:37:43.214Z,41.40
2022-11-26T08:40:13.771Z,35.63
2022-11-26T08:42:41.214Z,39.15
2022-11-26T08:45:08.655Z,39.88
2022-11-26T08:47:35.892Z,44.65
2022-11-26T08:50:03.031Z,33.03
2022-11-26T08:52:30.166Z,38.03
2022-11-26T08:54:57.336Z,39.50
2022-11-26T08:57:24.586Z,46.83
2022-11-26T08:59:52.014Z,38.33
2022-11-26T09:02:19.274Z,37.15
2022-11-26T09:04:47.699Z,40.75
2022-11-26T09:07:15.291Z,39.08
2022-11-26T09:09:42.666Z,40.60
2022-11-26T09:12:10.896Z,37.53
2022-11-26T09:14:39.806Z,36.30
2022-11-26T09:17:07.956Z,30.75
2022-11-26T09:19:35.193Z,29.00
2022-11-26T09:22:02.414Z,30.15
2022-11-26T09:24:29.553Z,32.03
2022-11-26T09:26:56.894Z,24.58
2022-11-26T09:29:24.522Z,31.25
2022-11-26T09:32:22.023Z,25.73
2022-11-26T09:34:39.883Z,28.20
2022-11-26T09:37:07.325Z,37.25
2022-11-26T09:39:34.544Z,29.92
2022-11-26T09:42:01.685Z,36.92
2022-11-26T09:44:28.905Z,36.15
2022-11-26T09:47:12.100Z,36.72
2022-11-26T09:49:52.408Z,38.00
2022-11-26T09:52:21.482Z,34.30
2022-11-26T09:54:50.933Z,30.33
2022-11-26T09:57:25.170Z,29.13
2022-11-26T09:59:52.861Z,27.60
2022-11-26T10:02:20.241Z,25.80
2022-11-26T10:04:48.488Z,25.48
2022-11-26T10:07:21.582Z,23.58
2022-11-26T10:09:58.242Z,14.68
2022-11-26T10:12:26.358Z,16.63
2022-11-26T10:15:12.659Z,20.80
2022-11-26T10:17:39.842Z,20.00
2022-11-26T10:20:07.500Z,17.60
2022-11-26T10:22:38.577Z,20.55
2022-11-26T10:25:15.350Z,24.88
2022-11-26T10:27:42.597Z,16.48
2022-11-26T10:30:17.355Z,21.55
2022-11-26T10:32:46.130Z,20.70
2022-11-26T10:35:15.825Z,21.10
2022-11-26T10:37:43.283Z,19.48
2022-11-26T10:40:13.607Z,17.90
2022-11-26T10:42:44.657Z,14.93
2022-11-26T10:45:20.249Z,15.50
2022-11-26T10:47:47.499Z,16.40
2022-11-26T10:53:05.527Z,15.68
2022-11-26T10:55:40.195Z,17.98
2022-11-26T10:58:27.969Z,17.75
2022-11-26T11:00:57.870Z,13.70
2022-11-26T11:04:06.822Z,13.55
2022-11-26T11:06:29.450Z,12.15
2022-11-26T11:08:57.153Z,13.07
2022-11-26T11:11:29.026Z,12.90
2022-11-26T11:13:57.448Z,13.20
2022-11-26T11:16:26.675Z,16.85
2022-11-26T11:19:04.927Z,13.25
2022-11-26T11:21:37.059Z,18.05
2022-11-26T11:24:15.055Z,12.73
2022-11-26T11:26:43.754Z,16.45
2022-11-26T11:29:29.755Z,17.23
2022-11-26T11:31:57.824Z,14.85
2022-11-26T11:34:35.403Z,13.85
2022-11-26T11:37:21.152Z,10.23
2022-11-26T11:40:03.782Z,13.95
2022-11-26T11:42:32.362Z,13.70
2022-11-26T11:45:00.902Z,12.32
2022-11-26T11:47:28.063Z,12.85
2022-11-26T11:50:13.799Z,12.05
2022-11-26T11:52:50.136Z,10.48
2022-11-26T11:55:20.109Z,13.55
2022-11-26T11:57:47.216Z,13.73
2022-11-26T12:00:22.879Z,14.27
2022-11-26T12:03:10.727Z,9.98
2022-11-26T12:05:56.432Z,14.38
2022-11-26T12:08:33.013Z,12.40
2022-11-26T12:11:12.708Z,10.45
2022-11-26T12:13:46.342Z,10.95
2022-11-26T12:16:15.242Z,9.98
2022-11-26T12:18:52.194Z,14.48
2022-11-26T12:21:22.518Z,8.93
2022-11-26T12:23:55.925Z,10.73
2022-11-26T12:26:27.164Z,12.90
2022-11-26T12:29:09.453Z,10.82
2022-11-26T12:31:44.858Z,13.90
2022-11-26T12:34:18.353Z,14.52
2022-11-26T12:36:51.121Z,20.33
2022-11-26T12:41:49.216Z,20.52
2022-11-26T12:44:28.573Z,14.60
2022-11-26T12:47:01.826Z,16.00
2022-11-26T12:49:35.741Z,14.10
2022-11-26T12:52:11.894Z,12.30
2022-11-26T12:54:54.787Z,10.50
2022-11-26T12:57:25.725Z,13.45
2022-11-26T12:59:52.838Z,10.90
2022-11-26T13:02:31.245Z,11.82
2022-11-26T13:04:59.353Z,13.50
2022-11-26T13:07:41.806Z,11.60
2022-11-26T13:10:38.419Z,10.10
2022-11-26T13:13:24.070Z,11.13
2022-11-26T13:16:02.539Z,8.60
2022-11-26T13:18:38.238Z,10.52
2022-11-26T13:21:05.715Z,12.98
2022-11-26T13:23:51.868Z,12.30
2022-11-26T13:26:19.059Z,9.38
2022-11-26T13:28:52.281Z,11.43
2022-11-26T13:31:30.796Z,7.28
2022-11-26T13:34:04.004Z,6.53
2022-11-26T13:36:37.234Z,10.77
2022-11-26T13:39:10.828Z,9.13
2022-11-26T13:41:56.588Z,10.30
2022-11-26T13:44:24.046Z,10.88
2022-11-26T13:47:11.651Z,7.95
2022-11-26T13:49:42.796Z,6.95
2022-11-26T13:52:09.956Z,8.77
2022-11-26T13:54:42.205Z,14.65
2022-11-26T13:57:13.199Z,7.75
2022-11-26T14:00:06.692Z,8.65
2022-11-26T14:02:33.919Z,9.90
2022-11-26T14:05:01.920Z,10.05
2022-11-26T14:07:29.111Z,8.48
2022-11-26T14:10:00.822Z,10.70
2022-11-26T14:12:46.844Z,13.60
2022-11-26T14:15:32.804Z,9.57
2022-11-26T14:18:00.029Z,17.83
2022-11-26T14:20:27.258Z,11.50
2022-11-26T14:22:54.527Z,8.88
2022-11-26T14:25:46.285Z,13.32
2022-11-26T14:28:13.454Z,9.75
2022-11-26T14:30:40.989Z,14.32
2022-11-26T14:33:19.744Z,11.32
2022-11-26T14:35:57.036Z,15.23
2022-11-26T14:38:26.455Z,13.80
2022-11-26T14:40:59.590Z,13.05
2022-11-26T14:43:26.882Z,11.93
2022-11-26T14:46:06.193Z,11.75
2022-11-26T14:48:35.783Z,7.03
2022-11-26T14:51:04.673Z,10.15
2022-11-26T14:53:32.923Z,13.93
2022-11-26T14:56:00.560Z,12.30
2022-11-26T14:58:30.941Z,15.27
2022-11-26T15:01:07.088Z,13.27
2022-11-26T15:03:34.823Z,16.30
2022-11-26T15:06:02.113Z,13.30
2022-11-26T15:08:29.398Z,11.68
2022-11-26T15:11:00.537Z,10.43
2022-11-26T15:13:43.306Z,15.00
2022-11-26T15:16:32.354Z,12.23
2022-11-26T15:18:59.975Z,14.63
2022-11-26T15:21:28.285Z,17.63
2022-11-26T15:23:58.882Z,19.90
2022-11-26T15:26:34.026Z,17.42
2022-11-26T15:29:25.055Z,18.67
2022-11-26T15:31:53.062Z,20.27
2022-11-26T15:34:20.020Z,26.20
2022-11-26T15:36:46.874Z,26.27
2022-11-26T15:39:32.082Z,22.48
2022-11-26T15:42:08.003Z,19.75
2022-11-26T15:44:42.380Z,19.23
2022-11-26T15:47:18.111Z,14.00
2022-11-26T15:49:54.199Z,20.10
2022-11-26T15:52:27.553Z,22.48
2022-11-26T15:55:15.661Z,21.60
2022-11-26T15:57:43.782Z,26.27
2022-11-26T16:00:32.616Z,24.15
2022-11-26T16:02:59.499Z,24.02
2022-11-26T16:05:39.339Z,28.35
2022-11-26T16:08:27.704Z,21.13
2022-11-26T16:10:56.916Z,17.02
2022-11-26T16:13:28.818Z,25.45
2022-11-26T16:15:58.524Z,41.87
2022-11-26T16:18:38.097Z,27.60
2022-11-26T16:21:24.150Z,23.65
2022-11-26T16:23:53.981Z,18.95
2022-11-26T16:26:20.745Z,22.77
2022-11-26T16:28:48.216Z,21.98
2022-11-26T16:31:16.344Z,22.58
2022-11-26T16:33:43.905Z,29.30
2022-11-26T16:36:33.654Z,22.77
2022-11-26T16:39:00.446Z,22.40
2022-11-26T16:41:27.399Z,25.17
2022-11-26T16:43:54.232Z,25.00
2022-11-26T16:46:23.897Z,18.02
2022-11-26T16:48:51.481Z,23.25
2022-11-26T16:51:18.771Z,19.30
2022-11-26T16:53:45.794Z,17.50
2022-11-26T16:56:20.608Z,21.20
2022-11-26T16:58:47.457Z,18.75
2022-11-26T17:01:14.325Z,21.33
2022-11-26T17:03:41.211Z,19.80
2022-11-26T17:06:24.395Z,23.45
2022-11-26T17:08:52.013Z,18.73
2022-11-26T17:11:18.912Z,21.95
2022-11-26T17:13:45.798Z,19.02
2022-11-26T17:16:18.783Z,20.35
2022-11-26T17:18:46.034Z,20.92
2022-11-26T17:21:12.982Z,19.88
2022-11-26T17:23:40.217Z,22.50
2022-11-26T17:26:19.620Z,23.00
2022-11-26T17:28:47.192Z,20.92
2022-11-26T17:31:14.569Z,20.80
2022-11-26T17:33:41.880Z,16.65
2022-11-26T17:36:15.105Z,21.73
2022-11-26T17:38:42.461Z,21.33
2022-11-26T17:41:11.271Z,24.77
2022-11-26T17:43:38.940Z,26.60
2022-11-26T17:46:06.347Z,27.48
2022-11-26T17:48:33.617Z,30.42
2022-11-26T17:51:00.856Z,26.88
2022-11-26T17:53:28.185Z,28.17
2022-11-26T17:55:55.359Z,20.88
2022-11-26T17:58:22.559Z,23.58
2022-11-26T18:00:50.027Z,29.83
2022-11-26T18:03:17.271Z,27.42
2022-11-26T18:05:44.546Z,32.17
2022-11-26T18:08:12.133Z,27.15
2022-11-26T18:10:41.073Z,20.00
2022-11-26T18:13:26.724Z,16.60
2022-11-26T18:16:01.145Z,28.40
2022-11-26T18:18:28.350Z,18.75
2022-11-26T18:20:55.705Z,18.20
2022-11-26T18:23:23.031Z,21.25
2022-11-26T18:25:50.315Z,26.05
2022-11-26T18:28:17.515Z,27.27
2022-11-26T18:30:45.470Z,19.38
2022-11-26T18:33:14.357Z,29.38
2022-11-26T18:35:44.751Z,26.70
2022-11-26T18:38:12.205Z,24.25
2022-11-26T18:40:45.102Z,26.10
2022-11-26T18:43:12.301Z,26.63
2022-11-26T18:45:42.882Z,35.17
2022-11-26T18:48:10.115Z,36.80
2022-11-26T18:50:38.191Z,34.75
2022-11-26T18:53:05.459Z,32.03
2022-11-26T18:55:32.723Z,33.83
2022-11-26T18:58:04.013Z,30.80
2022-11-26T19:00:33.858Z,26.23
2022-11-26T19:03:02.268Z,28.08
2022-11-26T19:05:29.504Z,28.63
2022-11-26T19:07:56.711Z,38.17
2022-11-26T19:10:24.168Z,23.80
2022-11-26T19:12:51.512Z,27.60
2022-11-26T19:15:18.772Z,29.85
2022-11-26T19:17:45.971Z,27.95
2022-11-26T19:20:16.258Z,27.23
2022-11-26T19:22:45.017Z,33.30
2022-11-26T19:25:12.539Z,32.67
2022-11-26T19:27:39.934Z,55.28
2022-11-26T19:30:07.961Z,71.93
2022-11-26T19:32:35.172Z,37.35
2022-11-26T19:35:05.784Z,38.20
2022-11-26T19:37:33.454Z,36.15
2022-11-26T19:40:00.622Z,39.40
2022-11-26T19:42:29.957Z,37.05
2022-11-26T19:44:57.257Z,39.08
2022-11-26T19:47:24.414Z,39.10
2022-11-26T19:49:51.599Z,36.92
2022-11-26T19:52:18.801Z,32.75
2022-11-26T19:54:46.013Z,35.63
2022-11-26T19:57:13.335Z,29.35
2022-11-26T19:59:40.850Z,27.30
2022-11-26T20:02:08.656Z,30.83
2022-11-26T20:04:35.891Z,32.22
2022-11-26T20:07:03.081Z,32.83
2022-11-26T20:09:30.198Z,33.15
2022-11-26T20:11:57.416Z,27.13
2022-11-26T20:14:24.556Z,29.48
2022-11-26T20:16:55.103Z,30.10
2022-11-26T20:19:24.874Z,27.40
2022-11-26T20:21:52.126Z,26.40
2022-11-26T20:24:19.299Z,29.55
2022-11-26T20:26:50.805Z,24.90
2022-11-26T20:29:18.739Z,21.85
2022-11-26T20:31:47.429Z,22.00
2022-11-26T20:34:15.458Z,22.05
2022-11-26T20:36:42.869Z,23.15
2022-11-26T20:39:12.984Z,31.40
2022-11-26T20:41:40.114Z,27.75
2022-11-26T20:44:07.423Z,22.55
2022-11-26T20:46:34.632Z,23.90
2022-11-26T20:49:01.871Z,22.23
2022-11-26T20:51:29.090Z,24.92
2022-11-26T20:53:58.734Z,27.30
2022-11-26T20:56:25.903Z,32.42
2022-11-26T20:58:53.431Z,29.33
2022-11-26T21:01:22.087Z,27.88
2022-11-26T21:03:49.436Z,30.58
2022-11-26T21:06:17.583Z,30.02
2022-11-26T21:08:44.875Z,27.63
2022-11-26T21:11:12.667Z,31.58
2022-11-26T21:13:40.137Z,28.77
2022-11-26T21:16:08.634Z,35.45
2022-11-26T21:18:35.934Z,34.58
2022-11-26T21:21:13.475Z,28.83
2022-11-26T21:23:41.411Z,28.38
2022-11-26T21:26:09.353Z,36.80
2022-11-26T21:28:36.626Z,35.35
2022-11-26T21:31:17.169Z,39.90
2022-11-26T21:33:45.759Z,39.42
2022-11-26T21:36:14.436Z,33.42
2022-11-26T21:38:41.890Z,36.72
2022-11-26T21:41:11.634Z,28.77
2022-11-26T21:43:39.446Z,31.73
2022-11-26T21:46:07.983Z,28.45
2022-11-26T21:48:38.170Z,31.13
2022-11-26T21:51:09.364Z,29.65
2022-11-26T21:53:36.757Z,34.80
2022-11-26T21:56:06.992Z,34.92
2022-11-26T21:58:35.854Z,30.38
2022-11-26T22:01:13.459Z,37.65
2022-11-26T22:03:41.350Z,37.17
2022-11-26T22:06:08.921Z,40.10
2022-11-26T22:08:36.310Z,39.40
2022-11-26T22:11:14.268Z,36.00
2022-11-26T22:13:41.458Z,38.45
2022-11-26T22:16:09.686Z,37.50
2022-11-26T22:18:37.785Z,31.25
2022-11-26T22:21:07.652Z,30.77
2022-11-26T22:23:34.876Z,40.40
2022-11-26T22:26:02.018Z,36.13
2022-11-26T22:28:30.242Z,38.83
2022-11-26T22:30:57.830Z,38.40
2022-11-26T22:33:25.564Z,36.00
2022-11-26T22:35:52.735Z,37.92
2022-11-26T22:38:19.881Z,42.35
2022-11-26T22:40:47.003Z,35.80
2022-11-26T22:43:14.165Z,35.53
2022-11-26T22:45:41.351Z,38.88
2022-11-26T22:48:10.725Z,39.03
2022-11-26T22:50:37.894Z,33.78
2022-11-26T22:53:06.850Z,40.45
2022-11-26T22:55:34.210Z,33.25
2022-11-26T22:58:01.497Z,35.17
2022-11-26T23:00:52.039Z,31.40
2022-11-26T23:03:19.877Z,32.50
2022-11-26T23:05:47.479Z,33.88
2022-11-26T23:08:15.082Z,30.95
2022-11-26T23:10:42.395Z,36.40
2022-11-26T23:13:10.335Z,52.83
2022-11-26T23:15:44.654Z,43.00
2022-11-26T23:18:13.003Z,43.67
2022-11-26T23:20:40.199Z,38.88
2022-11-26T23:23:07.454Z,43.85
2022-11-26T23:25:37.971Z,46.28
2022-11-26T23:28:06.566Z,46.42
2022-11-26T23:30:34.172Z,34.83
2022-11-26T23:33:01.441Z,34.75
2022-11-26T23:35:28.755Z,43.97
2022-11-26T23:37:56.001Z,38.63
2022-11-26T23:40:23.115Z,31.90
2022-11-26T23:42:50.277Z,28.73
2022-11-26T23:45:17.521Z,31.25
2022-11-26T23:47:44.723Z,29.27
2022-11-26T23:50:12.659Z,26.73
2022-11-26T23:52:39.824Z,28.63
2022-11-26T23:55:07.432Z,24.65
2022-11-26T23:57:34.674Z,29.45
